createdAt,value
2023-01-28T05:09:35.725Z,99.90
2023-01-28T05:12:04.053Z,99.90
2023-01-28T05:14:32.848Z,99.90
2023-01-28T12:48:11.347Z,99.90
2023-01-28T12:50:45.204Z,99.90
2023-01-28T12:53:21.703Z,99.90
2023-01-28T12:55:57.305Z,99.90
2023-01-28T12:58:38.216Z,99.90
2023-01-28T13:01:11.359Z,99.90
2023-01-28T13:03:45.341Z,99.90
2023-01-28T13:09:20.017Z,99.90
2023-01-28T13:11:51.668Z,99.90
2023-01-28T13:14:23.925Z,99.90
2023-01-28T13:16:52.569Z,99.90
2023-01-28T13:19:27.382Z,99.90
2023-01-28T13:21:55.653Z,99.90
2023-01-28T13:24:33.054Z,99.90
2023-01-28T13:27:13.120Z,99.90
2023-01-28T13:29:44.143Z,99.90
2023-01-28T13:32:33.173Z,99.90
2023-01-28T13:35:08.548Z,99.90
2023-01-28T13:37:39.896Z,99.90
2023-01-28T13:40:25.786Z,99.90
2023-01-28T13:43:03.367Z,99.90
2023-01-28T13:45:32.443Z,99.90
2023-01-28T13:48:06.488Z,99.90
2023-01-28T13:50:40.897Z,99.60
2023-01-28T13:53:34.067Z,99.40
2023-01-28T13:56:07.081Z,99.10
2023-01-28T13:59:18.148Z,99.10
2023-01-28T14:05:58.483Z,99.30
2023-01-28T14:09:00.483Z,99.90
2023-01-28T14:12:06.857Z,98.80
2023-01-28T14:15:24.342Z,98.90
2023-01-28T14:17:54.170Z,99.20
2023-01-28T14:45:59.318Z,99.80
2023-01-28T14:48:31.269Z,99.90
2023-01-28T14:51:23.061Z,99.90
2023-01-28T14:54:04.140Z,99.90
2023-01-28T14:56:40.756Z,99.90
2023-01-28T14:59:19.847Z,99.70
2023-01-28T15:01:53.297Z,99.90
2023-01-28T15:04:27.857Z,99.90
2023-01-28T15:06:56.585Z,99.10
2023-01-28T15:09:26.820Z,99.70
2023-01-28T15:12:03.159Z,98.30
2023-01-28T15:14:33.476Z,98.60
2023-01-28T15:17:03.325Z,98.90
2023-01-28T15:19:34.185Z,99.10
2023-01-28T15:22:04.753Z,99.20
2023-01-28T15:24:36.204Z,99.90
2023-01-28T15:27:06.058Z,99.90
2023-01-28T15:29:36.537Z,99.90
2023-01-28T15:32:20.655Z,99.90
2023-01-28T15:34:49.153Z,99.90
2023-01-28T15:37:18.429Z,99.80
2023-01-28T15:39:48.587Z,99.90
2023-01-28T15:42:29.567Z,99.40
2023-01-28T15:45:00.223Z,99.90
2023-01-28T15:47:32.462Z,99.90
2023-01-28T15:50:40.969Z,99.90
2023-01-28T15:53:13.462Z,99.90
2023-01-28T15:56:07.458Z,99.90
2023-01-28T15:58:54.852Z,99.90
2023-01-28T16:07:55.254Z,99.90
2023-01-28T16:10:33.528Z,99.90
2023-01-28T18:12:04.433Z,99.90
2023-01-28T18:14:32.727Z,99.90
2023-01-28T18:17:01.288Z,99.90
2023-01-28T18:19:29.393Z,99.90
2023-01-28T18:21:59.836Z,99.90
2023-01-28T18:24:30.177Z,99.90
2023-01-28T18:27:04.245Z,99.90
2023-01-28T18:29:33.665Z,99.90
2023-01-28T18:32:06.475Z,99.90
2023-01-28T18:34:34.893Z,99.90
2023-01-28T18:37:03.543Z,99.90
2023-01-28T18:39:31.843Z,99.90
2023-01-28T18:42:00.467Z,99.90
2023-01-28T18:44:32.168Z,99.90
2023-01-28T18:47:00.459Z,99.90
2023-01-28T18:49:28.654Z,99.90
2023-01-28T18:51:56.830Z,99.90
2023-01-28T18:54:25.018Z,99.90
2023-01-28T18:56:53.186Z,99.90
2023-01-28T18:59:21.369Z,99.90
2023-01-28T19:01:51.146Z,99.90
2023-01-28T19:04:19.931Z,99.90
2023-01-28T19:06:48.358Z,99.90
2023-01-28T19:09:17.530Z,99.90
2023-01-28T19:11:46.089Z,99.90
2023-01-28T19:14:20.942Z,99.90
2023-01-28T19:16:50.506Z,99.90
2023-01-28T19:19:18.648Z,99.90
2023-01-28T19:21:46.782Z,99.90
2023-01-28T19:24:15.174Z,99.90
2023-01-28T19:26:44.700Z,99.90
2023-01-28T19:29:15.534Z,99.90
2023-01-28T19:31:44.391Z,99.90
2023-01-28T19:34:14.143Z,99.90
2023-01-28T19:36:42.453Z,99.90
2023-01-28T19:39:12.039Z,99.90
2023-01-28T19:41:40.225Z,99.90
2023-01-28T19:44:08.683Z,99.90
2023-01-28T19:46:37.282Z,99.90
2023-01-28T19:49:05.963Z,99.90
2023-01-28T19:51:36.512Z,99.90
2023-01-28T19:54:04.685Z,99.90
2023-01-28T19:56:36.194Z,99.90
2023-01-28T19:59:04.373Z,99.90
2023-01-28T20:01:32.698Z,99.90
2023-01-28T20:04:01.773Z,99.90
2023-01-28T20:06:31.333Z,99.90
2023-01-28T20:09:03.517Z,99.90
2023-01-28T20:11:31.595Z,99.90
2023-01-28T20:13:59.837Z,99.90
2023-01-28T20:16:29.630Z,99.90
2023-01-28T20:18:59.370Z,99.90
2023-01-28T20:21:27.850Z,99.90
2023-01-28T20:23:56.311Z,99.90
2023-01-28T20:26:27.396Z,99.90
2023-01-28T20:28:55.418Z,99.90
2023-01-28T20:31:23.606Z,99.90
2023-01-28T20:33:51.696Z,99.90
2023-01-28T20:36:19.716Z,99.90
2023-01-28T20:38:48.959Z,99.90
2023-01-28T20:41:18.572Z,99.90
2023-01-28T20:43:48.784Z,99.90
2023-01-28T20:46:19.279Z,99.90
2023-01-28T20:48:47.656Z,99.90
2023-01-28T20:51:17.833Z,99.90
2023-01-28T20:53:46.388Z,99.90
2023-01-28T20:56:16.918Z,99.90
2023-01-28T20:58:45.334Z,99.90
2023-01-28T21:01:19.635Z,99.90
2023-01-28T21:03:48.091Z,99.90
2023-01-28T21:06:16.749Z,99.90
2023-01-28T21:08:44.994Z,99.90
2023-01-28T21:11:13.602Z,99.90
2023-01-28T21:13:41.777Z,99.90
2023-01-28T21:16:09.930Z,99.90
2023-01-28T21:18:39.312Z,99.90
2023-01-28T21:21:10.376Z,99.90
2023-01-28T21:23:38.380Z,99.90
2023-01-28T21:26:07.006Z,99.90
2023-01-28T21:28:35.095Z,99.90
2023-01-28T21:31:07.882Z,99.90
2023-01-28T21:33:36.211Z,99.90
2023-01-28T21:36:09.632Z,99.90
2023-01-28T21:38:37.608Z,99.90
2023-01-28T21:41:06.160Z,99.90
2023-01-28T21:43:34.568Z,99.90
2023-01-28T21:46:03.045Z,99.90
2023-01-28T21:48:31.676Z,99.90
2023-01-28T21:51:24.329Z,99.90
2023-01-28T21:53:52.486Z,99.90
2023-01-28T21:56:20.616Z,99.90
2023-01-28T21:59:05.353Z,99.90
2023-01-28T22:01:33.403Z,99.90
2023-01-28T22:04:01.623Z,99.90
2023-01-28T22:06:31.036Z,99.90
2023-01-28T22:08:59.152Z,99.90
2023-01-28T22:11:27.204Z,99.90
2023-01-28T22:13:55.327Z,99.90
2023-01-28T22:16:23.353Z,99.90
2023-01-28T22:18:51.397Z,99.90
2023-01-28T22:21:19.453Z,99.90
2023-01-28T22:23:48.838Z,99.90
2023-01-28T22:26:16.841Z,99.90
2023-01-28T22:28:44.898Z,99.90
2023-01-28T22:31:14.977Z,99.90
2023-01-28T22:33:43.528Z,99.90
2023-01-28T22:36:14.458Z,99.90
2023-01-28T22:38:44.311Z,99.90
2023-01-28T22:41:15.238Z,99.90
2023-01-28T22:43:43.338Z,99.90
2023-01-28T22:46:11.718Z,99.90
2023-01-28T22:48:40.281Z,99.90
